sensor_id;sensor_type;location;lat;lon;timestamp;temperature;humidity
16060;DHT22;8134;49.552;7.632;2023-08-12T00:00:01;21.00;99.90
16060;DHT22;8134;49.552;7.632;2023-08-12T00:02:39;21.00;99.90
16060;DHT22;8134;49.552;7.632;2023-08-12T00:05:05;21.00;99.90
16060;DHT22;8134;49.552;7.632;2023-08-12T00:07:31;21.00;99.90
16060;DHT22;8134;49.552;7.632;2023-08-12T00:09:58;21.00;99.90
16060;DHT22;8134;49.552;7.632;2023-08-12T00:12:23;21.00;99.90
16060;DHT22;8134;49.552;7.632;2023-08-12T00:14:49;21.00;99.90
16060;DHT22;8134;49.552;7.632;2023-08-12T00:17:14;21.00;99.90
16060;DHT22;8134;49.552;7.632;2023-08-12T00:19:40;21.00;99.90
16060;DHT22;8134;49.552;7.632;2023-08-12T00:22:05;21.00;99.90
16060;DHT22;8134;49.552;7.632;2023-08-12T00:24:31;21.00;99.90
16060;DHT22;8134;49.552;7.632;2023-08-12T00:26:56;21.00;99.90
16060;DHT22;8134;49.552;7.632;2023-08-12T00:29:22;21.10;99.90
16060;DHT22;8134;49.552;7.632;2023-08-12T00:31:47;21.00;99.90
16060;DHT22;8134;49.552;7.632;2023-08-12T00:34:13;21.00;99.90
16060;DHT22;8134;49.552;7.632;2023-08-12T00:36:38;21.00;99.90
16060;DHT22;8134;49.552;7.632;2023-08-12T00:39:04;21.00;99.90
16060;DHT22;8134;49.552;7.632;2023-08-12T00:41:30;21.00;99.90
16060;DHT22;8134;49.552;7.632;2023-08-12T00:43:56;21.00;99.90
16060;DHT22;8134;49.552;7.632;2023-08-12T00:46:21;21.00;99.90
16060;DHT22;8134;49.552;7.632;2023-08-12T00:48:47;21.00;99.90
16060;DHT22;8134;49.552;7.632;2023-08-12T00:51:14;21.00;99.90
16060;DHT22;8134;49.552;7.632;2023-08-12T00:53:40;21.00;99.90
16060;DHT22;8134;49.552;7.632;2023-08-12T00:56:06;21.00;99.90
16060;DHT22;8134;49.552;7.632;2023-08-12T00:58:32;21.00;99.90
16060;DHT22;8134;49.552;7.632;2023-08-12T01:00:57;21.00;99.90
16060;DHT22;8134;49.552;7.632;2023-08-12T01:03:23;21.00;99.90
16060;DHT22;8134;49.552;7.632;2023-08-12T01:05:48;21.00;99.90
16060;DHT22;8134;49.552;7.632;2023-08-12T01:08:15;21.00;99.90
16060;DHT22;8134;49.552;7.632;2023-08-12T01:10:43;21.00;99.90
16060;DHT22;8134;49.552;7.632;2023-08-12T01:13:22;21.00;99.90
16060;DHT22;8134;49.552;7.632;2023-08-12T01:15:52;21.10;99.90
16060;DHT22;8134;49.552;7.632;2023-08-12T01:18:19;21.10;99.90
16060;DHT22;8134;49.552;7.632;2023-08-12T01:20:45;21.10;99.90
16060;DHT22;8134;49.552;7.632;2023-08-12T01:23:14;21.00;99.90
16060;DHT22;8134;49.552;7.632;2023-08-12T01:25:40;21.00;99.90
16060;DHT22;8134;49.552;7.632;2023-08-12T01:28:06;21.00;99.90
16060;DHT22;8134;49.552;7.632;2023-08-12T01:30:32;21.00;99.90
16060;DHT22;8134;49.552;7.632;2023-08-12T01:35:33;21.00;99.90
16060;DHT22;8134;49.552;7.632;2023-08-12T01:38:01;21.00;99.90
16060;DHT22;8134;49.552;7.632;2023-08-12T01:40:28;21.00;99.90
16060;DHT22;8134;49.552;7.632;2023-08-12T01:43:16;21.00;99.90
16060;DHT22;8134;49.552;7.632;2023-08-12T05:46:11;20.80;99.90
16060;DHT22;8134;49.552;7.632;2023-08-12T06:32:34;21.20;99.90
16060;DHT22;8134;49.552;7.632;2023-08-12T06:35:30;21.20;99.90
16060;DHT22;8134;49.552;7.632;2023-08-12T06:38:11;21.20;99.90
16060;DHT22;8134;49.552;7.632;2023-08-12T06:40:39;21.30;99.90
16060;DHT22;8134;49.552;7.632;2023-08-12T06:43:05;21.30;99.90
16060;DHT22;8134;49.552;7.632;2023-08-12T06:45:33;21.30;99.90
16060;DHT22;8134;49.552;7.632;2023-08-12T06:48:16;21.30;99.90
16060;DHT22;8134;49.552;7.632;2023-08-12T06:50:56;21.40;99.90
16060;DHT22;8134;49.552;7.632;2023-08-12T06:53:25;21.50;99.90
16060;DHT22;8134;49.552;7.632;2023-08-12T06:55:51;21.50;99.90
16060;DHT22;8134;49.552;7.632;2023-08-12T06:58:25;21.50;99.90
16060;DHT22;8134;49.552;7.632;2023-08-12T07:07:04;21.60;99.90
16060;DHT22;8134;49.552;7.632;2023-08-12T07:21:55;21.80;99.90
16060;DHT22;8134;49.552;7.632;2023-08-12T07:24:23;21.80;99.90
16060;DHT22;8134;49.552;7.632;2023-08-12T07:33:03;21.90;99.90
16060;DHT22;8134;49.552;7.632;2023-08-12T07:35:55;21.80;99.90
16060;DHT22;8134;49.552;7.632;2023-08-12T07:38:23;21.90;99.90
16060;DHT22;8134;49.552;7.632;2023-08-12T07:40:51;21.90;99.90
16060;DHT22;8134;49.552;7.632;2023-08-12T07:43:20;21.90;99.90
16060;DHT22;8134;49.552;7.632;2023-08-12T07:45:54;22.00;99.90
16060;DHT22;8134;49.552;7.632;2023-08-12T07:48:22;22.10;99.90
16060;DHT22;8134;49.552;7.632;2023-08-12T07:50:58;22.20;99.90
16060;DHT22;8134;49.552;7.632;2023-08-12T07:53:24;22.30;99.90
16060;DHT22;8134;49.552;7.632;2023-08-12T07:55:55;22.30;99.90
16060;DHT22;8134;49.552;7.632;2023-08-12T07:58:21;22.30;99.90
16060;DHT22;8134;49.552;7.632;2023-08-12T08:00:47;22.40;99.90
16060;DHT22;8134;49.552;7.632;2023-08-12T08:03:12;22.50;99.90
16060;DHT22;8134;49.552;7.632;2023-08-12T08:05:40;22.50;99.90
16060;DHT22;8134;49.552;7.632;2023-08-12T08:08:07;22.50;99.90
16060;DHT22;8134;49.552;7.632;2023-08-12T08:10:33;22.60;99.90
16060;DHT22;8134;49.552;7.632;2023-08-12T08:12:58;22.60;99.90
16060;DHT22;8134;49.552;7.632;2023-08-12T08:15:24;22.60;99.90
16060;DHT22;8134;49.552;7.632;2023-08-12T08:17:49;22.60;99.90
16060;DHT22;8134;49.552;7.632;2023-08-12T08:20:15;22.60;99.90
16060;DHT22;8134;49.552;7.632;2023-08-12T08:22:40;22.60;99.90
16060;DHT22;8134;49.552;7.632;2023-08-12T08:25:06;22.60;99.90
16060;DHT22;8134;49.552;7.632;2023-08-12T08:27:32;22.70;99.90
16060;DHT22;8134;49.552;7.632;2023-08-12T08:29:57;22.70;99.90
16060;DHT22;8134;49.552;7.632;2023-08-12T08:32:23;22.80;99.90
16060;DHT22;8134;49.552;7.632;2023-08-12T08:34:48;22.80;99.90
16060;DHT22;8134;49.552;7.632;2023-08-12T08:37:14;22.90;99.90
16060;DHT22;8134;49.552;7.632;2023-08-12T08:39:39;22.90;99.90
16060;DHT22;8134;49.552;7.632;2023-08-12T08:42:05;23.00;99.90
16060;DHT22;8134;49.552;7.632;2023-08-12T08:44:31;23.10;99.90
16060;DHT22;8134;49.552;7.632;2023-08-12T08:46:58;23.20;99.90
16060;DHT22;8134;49.552;7.632;2023-08-12T08:49:25;23.20;99.90
16060;DHT22;8134;49.552;7.632;2023-08-12T08:51:50;23.30;99.90
16060;DHT22;8134;49.552;7.632;2023-08-12T08:54:16;23.40;99.90
16060;DHT22;8134;49.552;7.632;2023-08-12T08:56:42;23.50;99.90
16060;DHT22;8134;49.552;7.632;2023-08-12T09:11:38;23.10;99.90
16060;DHT22;8134;49.552;7.632;2023-08-12T09:14:21;23.10;99.90
16060;DHT22;8134;49.552;7.632;2023-08-12T09:23:04;22.90;99.90
16060;DHT22;8134;49.552;7.632;2023-08-12T09:25:35;22.90;99.90
16060;DHT22;8134;49.552;7.632;2023-08-12T09:28:01;22.90;99.90
16060;DHT22;8134;49.552;7.632;2023-08-12T09:30:30;22.80;99.90
16060;DHT22;8134;49.552;7.632;2023-08-12T09:33:00;22.80;99.90
16060;DHT22;8134;49.552;7.632;2023-08-12T09:35:39;22.70;99.90
16060;DHT22;8134;49.552;7.632;2023-08-12T09:44:08;22.60;99.90
16060;DHT22;8134;49.552;7.632;2023-08-12T09:46:36;22.40;99.90
16060;DHT22;8134;49.552;7.632;2023-08-12T14:51:39;26.50;99.90
16060;DHT22;8134;49.552;7.632;2023-08-12T18:50:58;23.40;99.90
16060;DHT22;8134;49.552;7.632;2023-08-12T18:53:24;23.30;99.90
16060;DHT22;8134;49.552;7.632;2023-08-12T18:55:49;23.30;99.90
16060;DHT22;8134;49.552;7.632;2023-08-12T18:58:15;23.20;99.90
16060;DHT22;8134;49.552;7.632;2023-08-12T19:00:40;23.10;99.90
16060;DHT22;8134;49.552;7.632;2023-08-12T19:03:06;23.10;99.90
16060;DHT22;8134;49.552;7.632;2023-08-12T19:05:31;23.00;99.90
16060;DHT22;8134;49.552;7.632;2023-08-12T19:07:57;23.00;99.90
16060;DHT22;8134;49.552;7.632;2023-08-12T19:10:22;23.00;99.90
16060;DHT22;8134;49.552;7.632;2023-08-12T19:12:48;23.00;99.90
16060;DHT22;8134;49.552;7.632;2023-08-12T19:15:13;23.00;99.90
16060;DHT22;8134;49.552;7.632;2023-08-12T19:17:39;23.00;99.90
16060;DHT22;8134;49.552;7.632;2023-08-12T19:20:05;22.90;99.90
16060;DHT22;8134;49.552;7.632;2023-08-12T19:22:30;22.90;99.90
16060;DHT22;8134;49.552;7.632;2023-08-12T19:24:56;22.80;99.90
16060;DHT22;8134;49.552;7.632;2023-08-12T19:27:21;22.70;99.90
16060;DHT22;8134;49.552;7.632;2023-08-12T19:29:47;22.70;99.90
16060;DHT22;8134;49.552;7.632;2023-08-12T19:32:12;22.70;99.90
16060;DHT22;8134;49.552;7.632;2023-08-12T19:34:38;22.70;99.90
16060;DHT22;8134;49.552;7.632;2023-08-12T19:37:04;22.70;99.90
16060;DHT22;8134;49.552;7.632;2023-08-12T19:39:30;22.60;99.90
16060;DHT22;8134;49.552;7.632;2023-08-12T19:41:56;22.60;99.90
16060;DHT22;8134;49.552;7.632;2023-08-12T19:44:21;22.60;99.90
16060;DHT22;8134;49.552;7.632;2023-08-12T19:46:47;22.70;99.90
16060;DHT22;8134;49.552;7.632;2023-08-12T19:49:12;22.70;99.90
16060;DHT22;8134;49.552;7.632;2023-08-12T19:51:38;22.70;99.90
16060;DHT22;8134;49.552;7.632;2023-08-12T19:54:04;22.70;99.90
16060;DHT22;8134;49.552;7.632;2023-08-12T19:56:29;22.70;99.90
16060;DHT22;8134;49.552;7.632;2023-08-12T19:58:55;22.70;99.90
16060;DHT22;8134;49.552;7.632;2023-08-12T20:01:20;22.70;99.90
16060;DHT22;8134;49.552;7.632;2023-08-12T20:03:46;22.70;99.90
16060;DHT22;8134;49.552;7.632;2023-08-12T20:06:12;22.80;99.90
16060;DHT22;8134;49.552;7.632;2023-08-12T20:08:37;22.80;99.90
16060;DHT22;8134;49.552;7.632;2023-08-12T20:11:03;22.80;99.90
16060;DHT22;8134;49.552;7.632;2023-08-12T20:13:28;22.80;99.90
16060;DHT22;8134;49.552;7.632;2023-08-12T20:15:55;22.80;99.90
16060;DHT22;8134;49.552;7.632;2023-08-12T20:18:24;22.80;99.90
16060;DHT22;8134;49.552;7.632;2023-08-12T20:20:50;22.80;99.90
16060;DHT22;8134;49.552;7.632;2023-08-12T20:23:15;22.80;99.90
16060;DHT22;8134;49.552;7.632;2023-08-12T20:25:41;22.90;99.90
16060;DHT22;8134;49.552;7.632;2023-08-12T20:28:06;22.90;99.90
16060;DHT22;8134;49.552;7.632;2023-08-12T20:30:32;22.90;99.90
16060;DHT22;8134;49.552;7.632;2023-08-12T20:32:59;22.90;99.90
16060;DHT22;8134;49.552;7.632;2023-08-12T20:35:24;22.90;99.90
16060;DHT22;8134;49.552;7.632;2023-08-12T20:37:50;22.90;99.90
16060;DHT22;8134;49.552;7.632;2023-08-12T20:40:17;22.80;99.90
16060;DHT22;8134;49.552;7.632;2023-08-12T20:42:43;22.90;99.90
16060;DHT22;8134;49.552;7.632;2023-08-12T20:45:09;22.90;99.90
16060;DHT22;8134;49.552;7.632;2023-08-12T20:47:34;22.90;99.90
16060;DHT22;8134;49.552;7.632;2023-08-12T20:50:00;22.90;99.90
16060;DHT22;8134;49.552;7.632;2023-08-12T20:52:26;22.80;99.90
16060;DHT22;8134;49.552;7.632;2023-08-12T20:54:52;22.80;99.90
16060;DHT22;8134;49.552;7.632;2023-08-12T20:57:20;22.80;99.90
16060;DHT22;8134;49.552;7.632;2023-08-12T20:59:48;22.80;99.90
16060;DHT22;8134;49.552;7.632;2023-08-12T21:02:13;22.70;99.90
16060;DHT22;8134;49.552;7.632;2023-08-12T21:04:39;22.70;99.90
16060;DHT22;8134;49.552;7.632;2023-08-12T21:07:05;22.60;99.90
16060;DHT22;8134;49.552;7.632;2023-08-12T21:09:30;22.60;99.90
16060;DHT22;8134;49.552;7.632;2023-08-12T21:11:57;22.60;99.90
16060;DHT22;8134;49.552;7.632;2023-08-12T21:14:23;22.60;99.90
16060;DHT22;8134;49.552;7.632;2023-08-12T21:16:49;22.60;99.90
16060;DHT22;8134;49.552;7.632;2023-08-12T21:19:15;22.50;99.90
16060;DHT22;8134;49.552;7.632;2023-08-12T21:21:43;22.50;99.90
16060;DHT22;8134;49.552;7.632;2023-08-12T21:24:09;22.50;99.90
16060;DHT22;8134;49.552;7.632;2023-08-12T21:26:35;22.50;99.90
16060;DHT22;8134;49.552;7.632;2023-08-12T21:29:00;22.60;99.90
16060;DHT22;8134;49.552;7.632;2023-08-12T21:31:26;22.60;99.90
16060;DHT22;8134;49.552;7.632;2023-08-12T21:33:51;22.50;99.90
16060;DHT22;8134;49.552;7.632;2023-08-12T21:36:17;22.60;99.90
16060;DHT22;8134;49.552;7.632;2023-08-12T21:38:42;22.50;99.90
16060;DHT22;8134;49.552;7.632;2023-08-12T21:41:11;22.50;99.90
16060;DHT22;8134;49.552;7.632;2023-08-12T21:43:36;22.50;99.90
16060;DHT22;8134;49.552;7.632;2023-08-12T21:46:02;22.50;99.90
16060;DHT22;8134;49.552;7.632;2023-08-12T21:48:27;22.50;99.90
16060;DHT22;8134;49.552;7.632;2023-08-12T21:50:53;22.40;99.90
16060;DHT22;8134;49.552;7.632;2023-08-12T21:53:19;22.40;99.90
16060;DHT22;8134;49.552;7.632;2023-08-12T21:55:44;22.40;99.90
16060;DHT22;8134;49.552;7.632;2023-08-12T21:58:10;22.40;99.90
16060;DHT22;8134;49.552;7.632;2023-08-12T22:00:35;22.50;99.90
16060;DHT22;8134;49.552;7.632;2023-08-12T22:03:01;22.50;99.90
16060;DHT22;8134;49.552;7.632;2023-08-12T22:05:26;22.50;99.90
16060;DHT22;8134;49.552;7.632;2023-08-12T22:07:52;22.50;99.90
16060;DHT22;8134;49.552;7.632;2023-08-12T22:10:18;22.40;99.90
16060;DHT22;8134;49.552;7.632;2023-08-12T22:12:44;22.40;99.90
16060;DHT22;8134;49.552;7.632;2023-08-12T22:15:09;22.40;99.90
16060;DHT22;8134;49.552;7.632;2023-08-12T22:17:35;22.40;99.90
16060;DHT22;8134;49.552;7.632;2023-08-12T22:20:02;22.40;99.90
16060;DHT22;8134;49.552;7.632;2023-08-12T22:22:29;22.40;99.90
16060;DHT22;8134;49.552;7.632;2023-08-12T22:24:55;22.30;99.90
16060;DHT22;8134;49.552;7.632;2023-08-12T22:27:21;22.30;99.90
16060;DHT22;8134;49.552;7.632;2023-08-12T22:29:46;22.30;99.90
16060;DHT22;8134;49.552;7.632;2023-08-12T22:32:12;22.30;99.90
16060;DHT22;8134;49.552;7.632;2023-08-12T22:34:37;22.30;99.90
16060;DHT22;8134;49.552;7.632;2023-08-12T22:37:03;22.30;99.90
16060;DHT22;8134;49.552;7.632;2023-08-12T22:39:28;22.30;99.90
16060;DHT22;8134;49.552;7.632;2023-08-12T22:41:54;22.30;99.90
16060;DHT22;8134;49.552;7.632;2023-08-12T22:44:19;22.20;99.90
16060;DHT22;8134;49.552;7.632;2023-08-12T22:46:45;22.20;99.90
16060;DHT22;8134;49.552;7.632;2023-08-12T22:49:10;22.20;99.90
16060;DHT22;8134;49.552;7.632;2023-08-12T22:51:36;22.20;99.90
16060;DHT22;8134;49.552;7.632;2023-08-12T22:54:04;22.20;99.90
16060;DHT22;8134;49.552;7.632;2023-08-12T22:56:30;22.20;99.90
16060;DHT22;8134;49.552;7.632;2023-08-12T22:58:56;22.10;99.90
16060;DHT22;8134;49.552;7.632;2023-08-12T23:01:25;22.10;99.90
16060;DHT22;8134;49.552;7.632;2023-08-12T23:03:51;22.10;99.90
16060;DHT22;8134;49.552;7.632;2023-08-12T23:06:16;22.10;99.90
16060;DHT22;8134;49.552;7.632;2023-08-12T23:08:43;22.10;99.90
16060;DHT22;8134;49.552;7.632;2023-08-12T23:11:09;22.10;99.90
16060;DHT22;8134;49.552;7.632;2023-08-12T23:13:34;22.10;99.90
16060;DHT22;8134;49.552;7.632;2023-08-12T23:16:00;22.10;99.90
16060;DHT22;8134;49.552;7.632;2023-08-12T23:18:25;22.00;99.90
16060;DHT22;8134;49.552;7.632;2023-08-12T23:20:51;21.90;99.90
16060;DHT22;8134;49.552;7.632;2023-08-12T23:23:17;21.90;99.90
16060;DHT22;8134;49.552;7.632;2023-08-12T23:25:42;21.80;99.90
16060;DHT22;8134;49.552;7.632;2023-08-12T23:28:08;21.80;99.90
16060;DHT22;8134;49.552;7.632;2023-08-12T23:30:33;21.70;99.90
16060;DHT22;8134;49.552;7.632;2023-08-12T23:32:59;21.70;99.90
16060;DHT22;8134;49.552;7.632;2023-08-12T23:35:24;21.60;99.90
16060;DHT22;8134;49.552;7.632;2023-08-12T23:37:50;21.50;99.90
16060;DHT22;8134;49.552;7.632;2023-08-12T23:40:15;21.50;99.90
16060;DHT22;8134;49.552;7.632;2023-08-12T23:42:41;21.40;99.90
16060;DHT22;8134;49.552;7.632;2023-08-12T23:45:07;21.40;99.90
16060;DHT22;8134;49.552;7.632;2023-08-12T23:47:33;21.30;99.90
16060;DHT22;8134;49.552;7.632;2023-08-12T23:49:59;21.30;99.90
16060;DHT22;8134;49.552;7.632;2023-08-12T23:52:24;21.20;99.90
16060;DHT22;8134;49.552;7.632;2023-08-12T23:54:50;21.20;99.90
16060;DHT22;8134;49.552;7.632;2023-08-12T23:57:15;21.20;99.90
16060;DHT22;8134;49.552;7.632;2023-08-12T23:59:41;21.10;99.90
